Kayenta, AZ

5:54 AM MST on February 14, 2016 (GMT -0700)
Blanding | | Change Station
CLOSE
Current Station
Airport
Location: Blanding,
Elevation: 5863 ft
Nearby Weather Stations

Elev 5863 ft 37.58 °N, 109.48 °W | Updated 19 minutes ago

Clear
Clear
29 °F
Feels Like 20 °F
N
10
Wind Variable Wind from NNE

Today
High -- | Low -- °F
--% Chance of Precip.
Yesterday
High -- | Low -- °F
Precip. -- in
Pressure 30.22 in
Visibility 10.0 miles
Clouds Clear
Windchill 20 °F
Dew Point 19 °F
Humidity 66%
Rainfall 0.00 in
Snow Depth Not available.
7:10 AM 6:00 PM
Waxing Crescent, 41% visible
METAR KBDG 141235Z AUTO 02009KT 10SM CLR M02/M07 A3022 RMK AO1 T10161072
Pressure 30.22 in
Visibility 10.0 miles
Clouds Clear
Windchill 20 °F
Dew Point 19 °F
Humidity 66%
Rainfall 0.00 in
Snow Depth Not available.
7:10 AM 6:00 PM
Waxing Crescent, 41% visible
METAR KBDG 141235Z AUTO 02009KT 10SM CLR M02/M07 A3022 RMK AO1 T10161072

10-Day Weather Forecast

Almanac

Astronomy

Feb. 14, 2016 Rise Set
Actual Time
Civil Twilight
Nautical Twilight
Astronomical Twilight
Moon
Length of Visible Light
Length of Day
Tomorrow will be .
, % of the Moon is Illuminated

Today's Extremes

State Highs State Lows

Community

WunderPhotos

Upload Photos

1,892,775 photos uploaded!

WunderBlog® & News

Nearby

Air Quality

  Air Quality AQ Index Pollutant
Not available.

Snow Depth

Station Depth Elevation

Earthquake Activity

City Distance Mag. Time & Date
Minimum magnitude displayed is 2.5.

Coastal Water Temperatures

Place Temperature

Stations

Nearby Weather Stations

Station Location Temp. Windchill Dew Point Humidity Wind Precip. Elev Updated Type
                   

Watches & Warnings

There are currently no watches in effect.